Time;durP1;ratioP1;P1;durP2;ratioP2;P2;SDS_P1;SDS_P2;PMS_P1;PMS_P2;Temp;Humidity;BMP_temperature;BMP_pressure;BME280_temperature;BME280_humidity;BME280_pressure;Samples;Min_cycle;Max_cycle;Signal;HPM_P1;HPM_P2
2022/03/15 00:00:32;;;;;;;3.30;2.37;;;;;;;;;;5021138;28;20444;-51
2022/03/15 00:02:58;;;;;;;6.20;3.00;;;;;;;;;;5017835;28;20440;-55
2022/03/15 00:05:24;;;;;;;3.90;2.10;;;;;;;;;;5019423;28;20534;-52
2022/03/15 00:07:50;;;;;;;6.60;2.60;;;;;;;;;;5017911;28;20478;-52
2022/03/15 00:10:17;;;;;;;4.60;2.20;;;;;;;;;;5023451;28;20504;-52
2022/03/15 00:12:43;;;;;;;3.53;2.07;;;;;;;;;;5024901;28;20467;-52
2022/03/15 00:15:10;;;;;;;6.03;3.73;;;;;;;;;;5019408;28;21228;-51
2022/03/15 00:17:38;;;;;;;9.17;3.13;;;;;;;;;;5021721;28;20500;-53
2022/03/15 00:20:05;;;;;;;5.30;2.67;;;;;;;;;;5026684;28;20454;-54
2022/03/15 00:22:35;;;;;;;6.00;3.10;;;;;;;;;;5025780;28;20458;-53
2022/03/15 00:25:02;;;;;;;4.97;3.03;;;;;;;;;;5021054;28;20442;-52
2022/03/15 00:27:28;;;;;;;2.97;2.60;;;;;;;;;;5025003;28;20566;-51
2022/03/15 00:29:54;;;;;;;3.97;3.63;;;;;;;;;;5029763;28;20430;-53
2022/03/15 00:32:20;;;;;;;5.10;2.03;;;;;;;;;;5022521;28;20500;-52
2022/03/15 00:34:49;;;;;;;5.10;2.70;;;;;;;;;;5028096;28;20431;-53
2022/03/15 00:37:15;;;;;;;4.20;2.40;;;;;;;;;;5025542;28;20881;-52
2022/03/15 00:39:41;;;;;;;6.40;2.70;;;;;;;;;;5026592;28;20458;-52
2022/03/15 00:42:07;;;;;;;5.47;3.03;;;;;;;;;;5038495;28;20195;-52
2022/03/15 00:44:33;;;;;;;3.80;2.70;;;;;;;;;;5027189;28;20431;-52
2022/03/15 00:46:59;;;;;;;2.63;2.30;;;;;;;;;;5022191;28;20593;-54
2022/03/15 00:49:26;;;;;;;4.17;3.20;;;;;;;;;;5025543;28;20271;-53
2022/03/15 00:51:52;;;;;;;5.53;3.07;;;;;;;;;;5022322;28;20448;-52
2022/03/15 00:54:18;;;;;;;7.50;2.97;;;;;;;;;;5024462;28;21003;-52
2022/03/15 00:56:44;;;;;;;7.87;3.00;;;;;;;;;;5024223;28;20538;-52
2022/03/15 00:59:10;;;;;;;5.07;3.20;;;;;;;;;;5022694;28;20430;-52
2022/03/15 01:01:36;;;;;;;3.63;2.53;;;;;;;;;;5022553;28;20809;-55
2022/03/15 01:04:03;;;;;;;4.63;2.93;;;;;;;;;;5024499;28;20428;-52
2022/03/15 01:06:29;;;;;;;5.73;3.27;;;;;;;;;;5022369;28;20865;-53
2022/03/15 01:08:55;;;;;;;4.90;2.60;;;;;;;;;;5024409;28;20520;-53
2022/03/15 01:11:21;;;;;;;4.80;2.50;;;;;;;;;;5024058;28;20531;-51
2022/03/15 01:13:47;;;;;;;20.70;3.33;;;;;;;;;;5025028;28;20515;-53
2022/03/15 01:16:13;;;;;;;4.00;2.17;;;;;;;;;;5024376;28;20444;-52
2022/03/15 01:18:39;;;;;;;3.17;2.57;;;;;;;;;;5021454;28;20433;-51
2022/03/15 01:21:05;;;;;;;4.90;3.20;;;;;;;;;;5020565;28;20492;-52
2022/03/15 01:23:31;;;;;;;4.43;3.20;;;;;;;;;;5026211;28;20450;-52
2022/03/15 01:25:57;;;;;;;7.00;2.87;;;;;;;;;;5023052;28;20477;-52
2022/03/15 01:28:24;;;;;;;4.03;2.40;;;;;;;;;;5022552;28;20439;-53
2022/03/15 01:30:50;;;;;;;4.20;2.67;;;;;;;;;;5023754;28;20518;-54
2022/03/15 01:33:17;;;;;;;2.97;2.63;;;;;;;;;;5024635;28;20446;-53
2022/03/15 01:35:43;;;;;;;5.67;2.87;;;;;;;;;;5022470;28;20442;-53
2022/03/15 01:38:09;;;;;;;2.90;2.60;;;;;;;;;;5026418;28;20439;-53
2022/03/15 01:40:35;;;;;;;3.73;2.80;;;;;;;;;;5025912;28;20573;-53
2022/03/15 01:43:01;;;;;;;3.20;2.47;;;;;;;;;;5033898;28;20522;-53
2022/03/15 01:45:34;;;;;;;6.90;3.50;;;;;;;;;;5028363;28;20442;-53
2022/03/15 01:48:00;;;;;;;7.27;2.83;;;;;;;;;;5030078;28;20481;-52
2022/03/15 01:50:26;;;;;;;6.57;2.50;;;;;;;;;;5030678;28;20439;-52
2022/03/15 01:52:51;;;;;;;5.00;2.60;;;;;;;;;;5031761;28;20493;-53
2022/03/15 01:55:18;;;;;;;4.20;2.43;;;;;;;;;;5030440;28;20185;-52
2022/03/15 01:57:44;;;;;;;9.13;3.00;;;;;;;;;;5031587;28;20441;-51
2022/03/15 02:00:10;;;;;;;3.20;2.67;;;;;;;;;;5020190;28;20432;-53
2022/03/15 02:02:36;;;;;;;3.90;2.90;;;;;;;;;;5016736;28;20248;-52
2022/03/15 02:05:02;;;;;;;4.90;2.57;;;;;;;;;;5018576;28;20426;-52
2022/03/15 02:07:28;;;;;;;3.67;2.87;;;;;;;;;;5021060;28;20482;-51
2022/03/15 02:09:54;;;;;;;4.47;2.10;;;;;;;;;;5025422;28;20469;-53
2022/03/15 02:12:20;;;;;;;3.43;2.70;;;;;;;;;;5022970;28;20497;-53
2022/03/15 02:14:46;;;;;;;4.00;2.23;;;;;;;;;;5023525;28;20434;-52
2022/03/15 02:17:12;;;;;;;4.13;2.70;;;;;;;;;;5020162;28;20442;-53
2022/03/15 02:19:38;;;;;;;4.33;2.60;;;;;;;;;;5027415;28;20447;-53
2022/03/15 02:22:04;;;;;;;5.20;2.60;;;;;;;;;;5024085;28;20449;-52
2022/03/15 02:24:31;;;;;;;3.27;2.37;;;;;;;;;;5025458;28;20176;-53
2022/03/15 02:26:57;;;;;;;4.43;3.67;;;;;;;;;;5019878;28;20478;-53
2022/03/15 02:29:23;;;;;;;4.23;2.53;;;;;;;;;;5028040;28;20982;-52
2022/03/15 02:31:49;;;;;;;5.73;2.87;;;;;;;;;;5020363;28;20488;-52
2022/03/15 02:34:16;;;;;;;5.47;3.30;;;;;;;;;;5027995;28;20456;-52
2022/03/15 02:36:43;;;;;;;3.30;2.67;;;;;;;;;;5030548;28;20431;-52
2022/03/15 02:39:09;;;;;;;2.97;2.60;;;;;;;;;;5030049;28;20923;-53
2022/03/15 02:41:35;;;;;;;3.50;3.00;;;;;;;;;;5041983;28;20449;-53
2022/03/15 02:44:01;;;;;;;4.63;2.53;;;;;;;;;;5037264;28;20217;-53
2022/03/15 02:46:29;;;;;;;2.73;2.50;;;;;;;;;;5031617;28;20212;-52
2022/03/15 02:48:55;;;;;;;5.07;2.77;;;;;;;;;;5029285;28;22500;-52
2022/03/15 02:51:21;;;;;;;4.80;2.57;;;;;;;;;;5030591;28;20434;-53
2022/03/15 02:53:47;;;;;;;6.20;2.60;;;;;;;;;;5026602;28;20439;-51
2022/03/15 02:56:13;;;;;;;7.07;2.93;;;;;;;;;;5033387;28;20450;-52
2022/03/15 02:58:39;;;;;;;5.43;2.40;;;;;;;;;;5023900;28;22514;-52
2022/03/15 03:01:05;;;;;;;5.30;2.17;;;;;;;;;;5027441;28;20537;-51
2022/03/15 03:03:31;;;;;;;6.00;2.27;;;;;;;;;;5030968;28;20487;-52
2022/03/15 03:05:57;;;;;;;3.80;2.70;;;;;;;;;;5028279;28;22158;-54
2022/03/15 03:08:25;;;;;;;2.83;2.20;;;;;;;;;;5029501;28;20885;-54
2022/03/15 03:10:52;;;;;;;4.00;2.20;;;;;;;;;;5024334;28;20444;-53
2022/03/15 03:13:18;;;;;;;4.90;2.47;;;;;;;;;;5023031;28;20530;-53
2022/03/15 03:15:44;;;;;;;2.90;2.37;;;;;;;;;;5020765;28;20422;-52
2022/03/15 03:18:10;;;;;;;2.87;2.07;;;;;;;;;;5027359;28;20462;-52
2022/03/15 03:20:36;;;;;;;2.30;2.10;;;;;;;;;;5033186;28;20434;-53
2022/03/15 03:23:02;;;;;;;3.23;1.90;;;;;;;;;;5034670;28;20189;-53
2022/03/15 03:25:30;;;;;;;4.03;2.50;;;;;;;;;;5035826;28;20462;-53
2022/03/15 03:27:57;;;;;;;5.43;2.30;;;;;;;;;;5037866;28;20466;-52
2022/03/15 03:30:23;;;;;;;5.97;2.90;;;;;;;;;;5028167;28;21188;-52
2022/03/15 03:32:49;;;;;;;3.70;2.73;;;;;;;;;;5023591;28;20445;-53
2022/03/15 03:35:15;;;;;;;5.20;2.93;;;;;;;;;;5025675;28;20530;-54
2022/03/15 03:37:41;;;;;;;6.50;2.63;;;;;;;;;;5025535;28;20578;-54
2022/03/15 03:40:07;;;;;;;5.50;2.17;;;;;;;;;;5029992;28;20248;-52
2022/03/15 03:42:36;;;;;;;6.47;2.07;;;;;;;;;;5035004;28;20454;-52
2022/03/15 03:45:03;;;;;;;4.57;2.17;;;;;;;;;;5031213;28;21011;-54
2022/03/15 03:47:29;;;;;;;6.70;2.47;;;;;;;;;;5027740;28;20505;-54
2022/03/15 03:49:55;;;;;;;2.47;2.27;;;;;;;;;;5026648;28;20439;-52
2022/03/15 03:52:21;;;;;;;4.00;2.77;;;;;;;;;;5026572;28;20545;-53
2022/03/15 03:54:47;;;;;;;6.77;2.07;;;;;;;;;;5026303;28;20552;-51
2022/03/15 03:57:13;;;;;;;3.13;2.40;;;;;;;;;;5023219;28;20451;-52
2022/03/15 03:59:39;;;;;;;6.73;2.37;;;;;;;;;;5025547;28;20936;-52
2022/03/15 04:02:06;;;;;;;4.60;2.33;;;;;;;;;;5021915;28;20468;-52
2022/03/15 04:04:32;;;;;;;5.93;2.43;;;;;;;;;;5034281;28;20645;-51
2022/03/15 04:07:00;;;;;;;3.73;2.20;;;;;;;;;;5032786;28;20536;-51
2022/03/15 04:09:26;;;;;;;5.60;2.50;;;;;;;;;;5027000;28;20193;-53
2022/03/15 04:11:52;;;;;;;5.73;2.00;;;;;;;;;;5020951;28;20427;-52
2022/03/15 04:14:18;;;;;;;5.07;2.40;;;;;;;;;;5025245;28;21026;-53
2022/03/15 04:16:44;;;;;;;7.10;2.83;;;;;;;;;;5024254;28;20431;-51
2022/03/15 04:19:11;;;;;;;7.20;2.57;;;;;;;;;;5028138;28;20181;-52
2022/03/15 04:21:37;;;;;;;4.00;2.50;;;;;;;;;;5030529;28;20983;-52
2022/03/15 04:24:03;;;;;;;4.13;2.63;;;;;;;;;;5024702;28;20431;-54
2022/03/15 04:26:29;;;;;;;3.33;2.20;;;;;;;;;;5023630;28;20554;-53
2022/03/15 04:28:55;;;;;;;5.00;3.07;;;;;;;;;;5023231;28;20500;-52
2022/03/15 04:31:22;;;;;;;5.43;3.13;;;;;;;;;;5023038;28;20451;-53
2022/03/15 04:33:48;;;;;;;7.70;2.60;;;;;;;;;;5022244;28;20466;-53
2022/03/15 04:36:14;;;;;;;3.43;3.13;;;;;;;;;;5024707;28;20419;-54
2022/03/15 04:38:40;;;;;;;4.50;2.67;;;;;;;;;;5024416;28;20434;-53
2022/03/15 04:41:06;;;;;;;3.30;2.30;;;;;;;;;;5037360;28;20930;-52
2022/03/15 04:43:32;;;;;;;4.10;1.90;;;;;;;;;;5036548;28;20474;-52
2022/03/15 04:45:59;;;;;;;4.50;2.93;;;;;;;;;;5026908;28;20510;-52
2022/03/15 04:48:25;;;;;;;3.63;2.13;;;;;;;;;;5026989;28;20444;-53
2022/03/15 04:50:51;;;;;;;7.53;3.50;;;;;;;;;;5025968;28;20438;-53
2022/03/15 04:53:18;;;;;;;4.43;2.90;;;;;;;;;;5021519;28;20525;-52
2022/03/15 04:55:45;;;;;;;3.77;2.50;;;;;;;;;;5022292;28;20529;-51
2022/03/15 04:58:11;;;;;;;5.40;3.03;;;;;;;;;;5024289;28;20480;-53
2022/03/15 05:00:37;;;;;;;3.30;3.00;;;;;;;;;;5018995;28;20443;-52
2022/03/15 05:03:03;;;;;;;6.43;4.70;;;;;;;;;;5023354;28;20546;-52
2022/03/15 05:05:29;;;;;;;4.97;4.40;;;;;;;;;;5030980;28;20480;-53
2022/03/15 05:07:55;;;;;;;4.43;3.13;;;;;;;;;;5026235;28;20478;-52
2022/03/15 05:13:07;;;;;;;6.53;3.97;;;;;;;;;;5023201;28;20227;-53
2022/03/15 05:15:33;;;;;;;3.97;2.80;;;;;;;;;;5024635;28;20438;-54
2022/03/15 05:18:01;;;;;;;4.17;3.10;;;;;;;;;;5019089;28;20835;-52
2022/03/15 05:20:28;;;;;;;4.67;2.70;;;;;;;;;;5023818;28;20530;-51
2022/03/15 05:22:54;;;;;;;6.87;2.50;;;;;;;;;;5022060;28;20501;-53
2022/03/15 05:25:20;;;;;;;5.43;2.93;;;;;;;;;;5022170;28;20434;-53
2022/03/15 05:27:47;;;;;;;2.50;2.30;;;;;;;;;;5026090;28;20482;-53
2022/03/15 05:30:13;;;;;;;6.63;3.67;;;;;;;;;;5025530;28;20995;-54
2022/03/15 05:32:39;;;;;;;4.60;2.60;;;;;;;;;;5021498;28;20644;-53
2022/03/15 05:35:05;;;;;;;4.23;2.37;;;;;;;;;;5025272;28;21069;-53
2022/03/15 05:37:31;;;;;;;3.70;2.47;;;;;;;;;;5024981;28;20434;-54
2022/03/15 05:39:58;;;;;;;3.70;2.13;;;;;;;;;;5024729;28;20453;-56
2022/03/15 05:42:24;;;;;;;3.70;2.30;;;;;;;;;;5034183;28;20184;-55
2022/03/15 05:44:50;;;;;;;3.03;2.33;;;;;;;;;;5025236;28;21042;-54
2022/03/15 05:47:16;;;;;;;3.10;2.47;;;;;;;;;;5017902;28;20482;-55
2022/03/15 05:49:42;;;;;;;7.07;2.33;;;;;;;;;;5019503;28;20442;-55
2022/03/15 05:52:08;;;;;;;2.70;2.10;;;;;;;;;;5017348;28;23121;-54
2022/03/15 05:54:35;;;;;;;4.10;2.00;;;;;;;;;;5017962;28;20442;-55
2022/03/15 05:57:01;;;;;;;4.33;2.73;;;;;;;;;;5031190;28;20459;-55
2022/03/15 05:59:27;;;;;;;2.87;2.20;;;;;;;;;;5033238;28;20439;-55
2022/03/15 06:01:54;;;;;;;4.50;2.73;;;;;;;;;;5023639;28;20538;-54
2022/03/15 06:04:23;;;;;;;7.83;2.60;;;;;;;;;;5022431;28;20431;-54
2022/03/15 06:06:49;;;;;;;3.43;2.57;;;;;;;;;;5018269;28;20515;-54
2022/03/15 06:09:15;;;;;;;5.00;2.87;;;;;;;;;;5022031;28;20439;-53
2022/03/15 06:11:41;;;;;;;6.83;2.60;;;;;;;;;;5023986;28;20431;-54
2022/03/15 06:14:07;;;;;;;4.10;2.43;;;;;;;;;;5024951;28;20438;-55
2022/03/15 06:16:33;;;;;;;2.97;2.33;;;;;;;;;;5025537;28;20438;-54
2022/03/15 06:19:00;;;;;;;3.10;2.40;;;;;;;;;;5025686;28;20443;-54
2022/03/15 06:21:26;;;;;;;3.77;2.50;;;;;;;;;;5019977;28;20441;-54
2022/03/15 06:23:52;;;;;;;3.93;3.17;;;;;;;;;;5025087;28;20954;-54
2022/03/15 06:26:21;;;;;;;3.13;2.70;;;;;;;;;;5021817;28;20448;-53
2022/03/15 06:28:47;;;;;;;2.80;2.47;;;;;;;;;;5018998;28;20443;-55
2022/03/15 06:31:16;;;;;;;4.40;2.90;;;;;;;;;;5016044;28;20964;-56
2022/03/15 06:33:42;;;;;;;5.20;2.13;;;;;;;;;;5019451;28;20434;-54
2022/03/15 06:36:11;;;;;;;4.07;2.77;;;;;;;;;;5020221;28;20488;-54
2022/03/15 06:38:40;;;;;;;6.67;3.00;;;;;;;;;;5013655;28;20510;-54
2022/03/15 06:41:09;;;;;;;3.97;2.30;;;;;;;;;;5018106;28;20422;-54
2022/03/15 06:43:35;;;;;;;4.40;2.90;;;;;;;;;;5025399;28;20458;-55
2022/03/15 06:46:01;;;;;;;5.67;2.40;;;;;;;;;;5020166;28;20431;-55
2022/03/15 06:48:27;;;;;;;8.83;3.40;;;;;;;;;;5024899;28;20490;-54
2022/03/15 06:50:54;;;;;;;4.07;2.60;;;;;;;;;;5027208;28;20436;-55
2022/03/15 06:53:20;;;;;;;5.27;3.23;;;;;;;;;;5024468;28;20439;-54
2022/03/15 06:55:46;;;;;;;2.97;2.67;;;;;;;;;;5025492;28;20443;-54
2022/03/15 06:58:12;;;;;;;6.97;3.17;;;;;;;;;;5026952;28;20449;-54
2022/03/15 07:00:38;;;;;;;7.27;2.77;;;;;;;;;;5023136;28;20442;-55
2022/03/15 07:03:05;;;;;;;3.10;2.80;;;;;;;;;;5028035;28;20260;-55
2022/03/15 07:05:31;;;;;;;5.03;2.90;;;;;;;;;;5022682;28;20438;-55
2022/03/15 07:07:57;;;;;;;6.67;3.63;;;;;;;;;;5028197;28;20561;-54
2022/03/15 07:10:23;;;;;;;7.27;3.40;;;;;;;;;;5026132;28;21006;-55
2022/03/15 07:12:48;;;;;;;5.67;3.27;;;;;;;;;;5024741;28;20454;-55
2022/03/15 07:15:16;;;;;;;6.33;3.00;;;;;;;;;;5025767;28;20438;-54
2022/03/15 07:17:51;;;;;;;7.20;3.27;;;;;;;;;;5026153;28;20443;-54
2022/03/15 07:20:18;;;;;;;6.00;3.07;;;;;;;;;;5023844;28;20815;-54
2022/03/15 07:22:44;;;;;;;5.30;3.50;;;;;;;;;;5025109;28;21050;-55
2022/03/15 07:25:10;;;;;;;5.07;3.67;;;;;;;;;;5025567;28;20478;-55
2022/03/15 07:27:36;;;;;;;8.10;3.00;;;;;;;;;;5021825;28;20497;-56
2022/03/15 07:30:02;;;;;;;4.97;3.57;;;;;;;;;;5022122;28;20439;-55
2022/03/15 07:32:28;;;;;;;7.83;3.50;;;;;;;;;;5024100;28;20450;-55
2022/03/15 07:34:54;;;;;;;9.20;2.67;;;;;;;;;;5023241;28;20435;-55
2022/03/15 07:37:20;;;;;;;3.60;3.27;;;;;;;;;;5023139;28;20569;-56
2022/03/15 07:39:46;;;;;;;6.07;2.97;;;;;;;;;;5025933;28;20950;-54
2022/03/15 07:42:12;;;;;;;5.97;3.00;;;;;;;;;;5024488;28;21366;-55
2022/03/15 07:44:41;;;;;;;4.33;3.40;;;;;;;;;;5024879;28;21192;-55
2022/03/15 07:47:07;;;;;;;3.47;2.33;;;;;;;;;;5024533;28;20978;-55
2022/03/15 07:49:32;;;;;;;5.80;2.40;;;;;;;;;;5027087;28;20469;-55
2022/03/15 07:51:58;;;;;;;7.43;2.83;;;;;;;;;;5016395;28;20457;-55
2022/03/15 07:54:24;;;;;;;5.00;3.00;;;;;;;;;;5019888;28;20554;-54
2022/03/15 07:56:51;;;;;;;4.63;2.60;;;;;;;;;;5019480;28;20431;-56
2022/03/15 07:59:16;;;;;;;4.33;2.37;;;;;;;;;;5018207;28;20487;-54
2022/03/15 08:01:42;;;;;;;3.90;2.80;;;;;;;;;;5019776;28;20435;-54
2022/03/15 08:04:08;;;;;;;5.67;2.27;;;;;;;;;;5019565;28;22462;-55
2022/03/15 08:06:35;;;;;;;3.50;2.50;;;;;;;;;;5018713;28;20787;-54
2022/03/15 08:09:01;;;;;;;4.00;2.97;;;;;;;;;;5021945;28;20551;-55
2022/03/15 08:11:27;;;;;;;7.70;3.30;;;;;;;;;;5019196;28;20441;-56
2022/03/15 08:13:54;;;;;;;6.17;2.70;;;;;;;;;;5016674;28;20561;-55
2022/03/15 08:16:21;;;;;;;6.90;3.23;;;;;;;;;;5018913;28;20438;-55
2022/03/15 08:18:47;;;;;;;3.60;2.43;;;;;;;;;;5016802;28;20435;-55
2022/03/15 08:21:13;;;;;;;5.67;3.20;;;;;;;;;;5015978;28;20481;-55
2022/03/15 08:23:39;;;;;;;5.33;2.70;;;;;;;;;;5017828;28;21477;-55
2022/03/15 08:26:05;;;;;;;3.57;2.50;;;;;;;;;;5021151;28;20436;-55
2022/03/15 08:28:32;;;;;;;3.80;2.80;;;;;;;;;;5019541;28;20534;-54
2022/03/15 08:30:59;;;;;;;3.70;2.97;;;;;;;;;;5018621;28;20435;-55
2022/03/15 08:33:25;;;;;;;4.50;2.37;;;;;;;;;;5014536;28;20454;-55
2022/03/15 08:35:52;;;;;;;4.00;2.50;;;;;;;;;;5018429;28;20537;-54
2022/03/15 08:38:18;;;;;;;2.60;2.37;;;;;;;;;;5018796;28;20454;-55
2022/03/15 08:40:44;;;;;;;3.70;2.70;;;;;;;;;;5018844;28;20580;-54
2022/03/15 08:43:10;;;;;;;5.13;3.00;;;;;;;;;;5019008;28;20450;-54
2022/03/15 08:45:36;;;;;;;4.00;2.27;;;;;;;;;;5018530;28;20564;-55
2022/03/15 08:48:03;;;;;;;3.70;2.20;;;;;;;;;;5017556;28;21078;-55
2022/03/15 08:50:29;;;;;;;5.93;2.27;;;;;;;;;;5018201;28;20439;-55
2022/03/15 08:52:55;;;;;;;3.80;2.30;;;;;;;;;;5018866;28;20461;-55
2022/03/15 08:55:22;;;;;;;3.27;2.50;;;;;;;;;;5018233;28;20439;-54
2022/03/15 08:57:48;;;;;;;3.53;2.53;;;;;;;;;;5018607;28;20451;-55
2022/03/15 09:00:14;;;;;;;3.60;2.23;;;;;;;;;;5019408;28;20434;-55
2022/03/15 09:02:40;;;;;;;3.63;2.17;;;;;;;;;;5014412;28;20853;-55
2022/03/15 09:05:07;;;;;;;3.20;2.20;;;;;;;;;;5014369;28;20439;-55
2022/03/15 09:07:33;;;;;;;5.50;2.37;;;;;;;;;;5021195;28;20643;-55
2022/03/15 09:09:59;;;;;;;2.40;2.07;;;;;;;;;;5016742;28;20441;-55
2022/03/15 09:12:25;;;;;;;2.77;2.03;;;;;;;;;;5018212;28;20439;-55
2022/03/15 09:14:51;;;;;;;7.87;2.87;;;;;;;;;;5015487;28;20660;-52
2022/03/15 09:17:18;;;;;;;3.70;2.00;;;;;;;;;;5014325;28;20447;-55
2022/03/15 09:19:44;;;;;;;3.03;2.60;;;;;;;;;;5015337;28;20442;-55
2022/03/15 09:22:10;;;;;;;3.67;2.03;;;;;;;;;;5016197;28;22627;-55
2022/03/15 09:24:36;;;;;;;4.50;2.50;;;;;;;;;;5015674;28;20521;-54
2022/03/15 09:27:02;;;;;;;3.43;2.23;;;;;;;;;;5015568;28;20482;-55
2022/03/15 09:29:29;;;;;;;4.03;2.93;;;;;;;;;;5010049;28;20439;-56
2022/03/15 09:31:55;;;;;;;5.03;2.43;;;;;;;;;;5014901;28;20471;-55
2022/03/15 09:34:22;;;;;;;5.03;2.27;;;;;;;;;;5014521;28;20469;-55
2022/03/15 09:36:49;;;;;;;2.50;1.90;;;;;;;;;;5015634;28;20872;-55
2022/03/15 09:39:15;;;;;;;4.03;2.20;;;;;;;;;;5013904;28;20836;-55
2022/03/15 09:41:41;;;;;;;2.70;2.30;;;;;;;;;;5015620;28;20471;-54
2022/03/15 09:44:08;;;;;;;2.30;2.10;;;;;;;;;;5016920;28;20488;-55
2022/03/15 09:46:37;;;;;;;3.57;1.83;;;;;;;;;;5016063;28;20537;-57
2022/03/15 09:49:03;;;;;;;3.30;2.60;;;;;;;;;;5015062;28;20460;-55
2022/03/15 09:51:32;;;;;;;3.20;2.70;;;;;;;;;;5018902;28;20430;-56
2022/03/15 09:53:58;;;;;;;3.13;2.30;;;;;;;;;;5012877;28;20450;-55
2022/03/15 09:56:24;;;;;;;3.50;2.20;;;;;;;;;;5016041;28;20439;-56
2022/03/15 09:58:50;;;;;;;6.17;2.50;;;;;;;;;;5014463;28;20513;-55
2022/03/15 10:01:19;;;;;;;4.17;1.97;;;;;;;;;;5016162;28;20570;-54
2022/03/15 10:03:46;;;;;;;4.00;2.10;;;;;;;;;;5015487;28;20512;-55
2022/03/15 10:06:13;;;;;;;2.60;2.00;;;;;;;;;;5017150;28;21250;-56
2022/03/15 10:08:39;;;;;;;3.10;2.47;;;;;;;;;;5017787;28;20480;-55
2022/03/15 10:11:05;;;;;;;3.13;2.07;;;;;;;;;;5015962;28;20967;-55
2022/03/15 10:13:31;;;;;;;3.70;2.30;;;;;;;;;;5017162;28;20444;-56
2022/03/15 10:16:00;;;;;;;5.63;2.23;;;;;;;;;;5015230;28;20440;-54
2022/03/15 10:18:27;;;;;;;3.40;2.33;;;;;;;;;;5013214;28;20511;-57
2022/03/15 10:20:53;;;;;;;2.27;2.07;;;;;;;;;;5018655;28;20457;-55
2022/03/15 10:23:24;;;;;;;8.07;2.70;;;;;;;;;;5017580;28;20446;-55
2022/03/15 10:25:51;;;;;;;3.53;2.70;;;;;;;;;;5012806;28;20434;-55
2022/03/15 10:28:17;;;;;;;4.40;2.87;;;;;;;;;;5014905;28;20500;-55
2022/03/15 10:30:43;;;;;;;3.33;2.37;;;;;;;;;;5019565;28;21065;-55
2022/03/15 10:33:09;;;;;;;4.50;2.20;;;;;;;;;;5017115;28;20591;-56
2022/03/15 10:35:37;;;;;;;7.20;2.53;;;;;;;;;;5019535;28;20435;-56
2022/03/15 10:38:03;;;;;;;2.70;2.50;;;;;;;;;;5019647;28;20461;-56
2022/03/15 10:40:39;;;;;;;3.33;2.20;;;;;;;;;;5023088;28;21017;-55
2022/03/15 10:43:09;;;;;;;3.60;2.20;;;;;;;;;;5020429;28;20968;-54
2022/03/15 10:45:36;;;;;;;3.23;2.70;;;;;;;;;;5018829;28;20440;-55
2022/03/15 10:48:03;;;;;;;2.67;2.00;;;;;;;;;;5019651;28;20568;-55
2022/03/15 10:50:30;;;;;;;3.53;2.50;;;;;;;;;;5018381;28;22319;-56
2022/03/15 10:52:56;;;;;;;4.60;2.30;;;;;;;;;;5014054;28;20436;-55
2022/03/15 10:55:23;;;;;;;4.60;2.97;;;;;;;;;;5016351;28;20430;-56
2022/03/15 10:57:50;;;;;;;3.07;2.13;;;;;;;;;;5018660;28;20497;-56
2022/03/15 11:00:17;;;;;;;3.20;2.70;;;;;;;;;;5017157;28;20501;-56
2022/03/15 11:02:43;;;;;;;10.00;3.23;;;;;;;;;;5018029;28;20439;-56
2022/03/15 11:05:10;;;;;;;4.80;2.80;;;;;;;;;;5019382;28;20477;-56
2022/03/15 11:07:40;;;;;;;3.40;2.77;;;;;;;;;;5019883;28;20473;-56
2022/03/15 11:10:12;;;;;;;5.60;3.10;;;;;;;;;;5021784;28;20435;-56
2022/03/15 11:12:38;;;;;;;3.60;3.20;;;;;;;;;;5019716;28;20439;-55
2022/03/15 11:15:05;;;;;;;6.00;3.20;;;;;;;;;;5019202;28;20886;-55
2022/03/15 11:17:32;;;;;;;5.23;4.03;;;;;;;;;;5015889;28;20445;-55
2022/03/15 11:19:59;;;;;;;4.03;3.63;;;;;;;;;;5016412;28;21088;-56
2022/03/15 11:22:34;;;;;;;5.27;4.10;;;;;;;;;;5017824;28;20466;-55
2022/03/15 11:25:00;;;;;;;3.47;3.07;;;;;;;;;;5020831;28;21117;-55
2022/03/15 11:27:26;;;;;;;5.83;3.37;;;;;;;;;;5018630;28;20478;-55
2022/03/15 11:29:52;;;;;;;4.50;3.37;;;;;;;;;;5018221;28;20268;-55
2022/03/15 11:32:18;;;;;;;8.00;3.47;;;;;;;;;;5022515;28;20545;-55
2022/03/15 11:34:44;;;;;;;3.33;3.00;;;;;;;;;;5026636;28;20498;-56
2022/03/15 11:37:11;;;;;;;7.00;3.40;;;;;;;;;;5025269;28;20481;-54
2022/03/15 11:39:41;;;;;;;4.00;2.93;;;;;;;;;;5026476;28;20535;-56
2022/03/15 11:42:08;;;;;;;3.50;2.63;;;;;;;;;;5021620;28;21109;-56
2022/03/15 11:44:55;;;;;;;5.70;4.00;;;;;;;;;;5024964;28;20440;-56
2022/03/15 11:47:24;;;;;;;4.60;3.30;;;;;;;;;;5023191;28;20484;-55
2022/03/15 11:49:56;;;;;;;4.97;3.17;;;;;;;;;;5030032;28;20501;-55
2022/03/15 11:52:28;;;;;;;4.43;3.33;;;;;;;;;;5028071;28;20929;-55
2022/03/15 11:55:03;;;;;;;3.63;3.13;;;;;;;;;;5023908;28;20462;-55
2022/03/15 11:57:30;;;;;;;5.03;4.13;;;;;;;;;;5023815;28;20446;-56
2022/03/15 11:59:56;;;;;;;5.60;4.13;;;;;;;;;;5023146;28;20465;-54
2022/03/15 12:02:29;;;;;;;4.40;3.87;;;;;;;;;;5021136;28;20656;-54
2022/03/15 12:04:56;;;;;;;10.40;4.20;;;;;;;;;;5024666;28;20477;-54
2022/03/15 12:07:47;;;;;;;5.30;3.83;;;;;;;;;;5022724;28;20481;-55
2022/03/15 12:10:28;;;;;;;6.33;4.63;;;;;;;;;;5024920;28;20497;-55
2022/03/15 12:13:02;;;;;;;5.37;4.30;;;;;;;;;;5021518;28;20453;-56
2022/03/15 12:15:38;;;;;;;7.80;5.00;;;;;;;;;;5022588;28;21243;-55
2022/03/15 12:18:09;;;;;;;6.43;4.27;;;;;;;;;;5022452;28;20430;-55
2022/03/15 12:20:48;;;;;;;4.70;4.27;;;;;;;;;;5022481;28;20451;-56
2022/03/15 12:23:19;;;;;;;7.60;4.00;;;;;;;;;;5024742;28;20445;-55
2022/03/15 12:25:52;;;;;;;6.67;4.30;;;;;;;;;;5022803;28;20532;-55
2022/03/15 12:28:24;;;;;;;6.20;4.40;;;;;;;;;;5021365;28;21009;-55
2022/03/15 12:30:52;;;;;;;9.00;4.73;;;;;;;;;;5020922;28;20453;-55
2022/03/15 12:33:27;;;;;;;6.80;4.20;;;;;;;;;;5019813;28;20431;-55
2022/03/15 12:36:06;;;;;;;14.63;7.53;;;;;;;;;;5020942;28;20435;-55
2022/03/15 12:38:33;;;;;;;8.13;5.23;;;;;;;;;;5022662;28;20431;-55
2022/03/15 12:41:03;;;;;;;10.20;5.50;;;;;;;;;;5021782;28;20874;-55
2022/03/15 12:43:29;;;;;;;6.80;6.20;;;;;;;;;;5021868;28;20427;-55
2022/03/15 12:45:58;;;;;;;9.37;5.03;;;;;;;;;;5022973;28;20439;-56
2022/03/15 12:48:31;;;;;;;9.40;5.70;;;;;;;;;;5021949;28;22101;-55
2022/03/15 12:51:01;;;;;;;6.93;5.30;;;;;;;;;;5022488;28;20450;-55
2022/03/15 12:53:37;;;;;;;10.60;5.03;;;;;;;;;;5017463;28;20443;-56
2022/03/15 12:56:04;;;;;;;5.70;5.10;;;;;;;;;;5017868;28;20996;-55
2022/03/15 12:58:30;;;;;;;9.40;6.30;;;;;;;;;;5020960;28;20638;-55
2022/03/15 13:00:56;;;;;;;10.93;6.77;;;;;;;;;;5021989;28;20443;-54
2022/03/15 13:03:22;;;;;;;12.07;6.80;;;;;;;;;;5022909;28;20433;-55
2022/03/15 13:05:52;;;;;;;8.93;6.20;;;;;;;;;;5022174;28;20458;-55
2022/03/15 13:08:19;;;;;;;6.83;5.60;;;;;;;;;;5015949;28;20491;-55
2022/03/15 13:10:47;;;;;;;10.57;5.77;;;;;;;;;;5017350;28;20439;-57
2022/03/15 13:13:13;;;;;;;6.70;5.93;;;;;;;;;;5020154;28;20483;-55
2022/03/15 13:15:40;;;;;;;13.80;5.90;;;;;;;;;;5015399;28;20448;-55
2022/03/15 13:18:08;;;;;;;6.40;5.10;;;;;;;;;;5022046;28;20562;-55
2022/03/15 13:20:34;;;;;;;7.67;4.77;;;;;;;;;;5022276;28;20438;-55
2022/03/15 13:23:07;;;;;;;9.20;6.73;;;;;;;;;;5021388;28;20958;-54
2022/03/15 13:25:43;;;;;;;7.83;5.67;;;;;;;;;;5025148;28;20467;-54
2022/03/15 13:28:26;;;;;;;8.63;5.33;;;;;;;;;;5022511;28;20901;-62
2022/03/15 13:30:53;;;;;;;6.80;4.60;;;;;;;;;;5024342;28;20431;-56
2022/03/15 13:33:29;;;;;;;9.97;5.23;;;;;;;;;;5027096;28;20441;-54
2022/03/15 13:36:21;;;;;;;9.13;5.57;;;;;;;;;;5023573;28;20507;-54
2022/03/15 13:38:51;;;;;;;6.97;5.73;;;;;;;;;;5024673;28;20534;-55
2022/03/15 13:41:25;;;;;;;8.10;5.70;;;;;;;;;;5022127;28;20435;-55
2022/03/15 13:43:51;;;;;;;14.40;5.50;;;;;;;;;;5026751;28;20474;-54
2022/03/15 13:46:18;;;;;;;5.57;5.00;;;;;;;;;;5023997;28;20992;-55
2022/03/15 13:48:46;;;;;;;8.73;5.60;;;;;;;;;;5026495;28;20493;-55
2022/03/15 13:51:23;;;;;;;7.20;5.97;;;;;;;;;;5023412;28;25421;-55
2022/03/15 13:53:50;;;;;;;10.53;6.10;;;;;;;;;;5025712;28;20435;-55
2022/03/15 13:56:19;;;;;;;9.40;5.50;;;;;;;;;;5025232;28;20438;-56
2022/03/15 13:58:47;;;;;;;7.43;4.67;;;;;;;;;;5043735;28;20501;-61
2022/03/15 14:01:14;;;;;;;6.43;4.93;;;;;;;;;;5033903;28;20430;-54
2022/03/15 14:03:40;;;;;;;9.73;5.47;;;;;;;;;;5024107;28;20521;-54
2022/03/15 14:06:07;;;;;;;8.03;5.73;;;;;;;;;;5017534;28;20434;-55
2022/03/15 14:08:47;;;;;;;10.90;4.90;;;;;;;;;;5028190;28;20482;-55
2022/03/15 14:11:14;;;;;;;6.20;5.33;;;;;;;;;;5029521;28;20816;-54
2022/03/15 14:13:41;;;;;;;6.20;4.90;;;;;;;;;;5026417;28;21006;-54
2022/03/15 14:16:09;;;;;;;10.23;4.77;;;;;;;;;;5027837;28;20450;-57
2022/03/15 14:18:38;;;;;;;10.73;4.83;;;;;;;;;;5037298;28;20526;-54
2022/03/15 14:21:05;;;;;;;7.27;5.43;;;;;;;;;;5034128;28;20449;-55
2022/03/15 14:23:31;;;;;;;5.70;4.73;;;;;;;;;;5021832;28;21132;-54
2022/03/15 14:26:01;;;;;;;6.97;5.43;;;;;;;;;;5025493;28;20505;-55
2022/03/15 14:28:28;;;;;;;5.30;4.33;;;;;;;;;;5306007;22;20942;-73
2022/03/15 14:31:01;;;;;;;4.60;3.93;;;;;;;;;;5017705;28;20440;-73
2022/03/15 14:33:27;;;;;;;6.17;4.07;;;;;;;;;;5044630;22;20503;-56
2022/03/15 14:35:56;;;;;;;7.83;4.33;;;;;;;;;;5036557;28;20439;-56
2022/03/15 14:38:23;;;;;;;5.67;4.40;;;;;;;;;;5037100;28;20418;-56
2022/03/15 14:40:53;;;;;;;7.00;4.37;;;;;;;;;;5035755;28;20446;-56
2022/03/15 14:43:20;;;;;;;9.57;6.87;;;;;;;;;;5033564;28;20453;-56
2022/03/15 14:45:48;;;;;;;8.00;5.67;;;;;;;;;;5032007;28;20907;-57